sensor_id;sensor_type;location;lat;lon;timestamp;P1;durP1;ratioP1;P2;durP2;ratioP2
8622;SDS011;4349;47.552;8.904;2023-11-21T00:00:40;4.80;;;1.47;;
8622;SDS011;4349;47.552;8.904;2023-11-21T00:03:08;6.80;;;1.70;;
8622;SDS011;4349;47.552;8.904;2023-11-21T00:05:39;3.87;;;1.57;;
8622;SDS011;4349;47.552;8.904;2023-11-21T00:08:07;1.70;;;1.57;;
8622;SDS011;4349;47.552;8.904;2023-11-21T00:10:35;3.77;;;1.90;;
8622;SDS011;4349;47.552;8.904;2023-11-21T00:13:04;4.23;;;1.70;;
8622;SDS011;4349;47.552;8.904;2023-11-21T00:15:31;2.40;;;1.50;;
8622;SDS011;4349;47.552;8.904;2023-11-21T00:18:01;3.83;;;1.40;;
8622;SDS011;4349;47.552;8.904;2023-11-21T00:20:29;3.17;;;1.30;;
8622;SDS011;4349;47.552;8.904;2023-11-21T00:22:57;2.93;;;1.40;;
8622;SDS011;4349;47.552;8.904;2023-11-21T00:25:26;6.97;;;1.70;;
8622;SDS011;4349;47.552;8.904;2023-11-21T00:27:53;3.03;;;1.57;;
8622;SDS011;4349;47.552;8.904;2023-11-21T00:30:21;2.83;;;1.40;;
8622;SDS011;4349;47.552;8.904;2023-11-21T00:32:48;1.73;;;1.10;;
8622;SDS011;4349;47.552;8.904;2023-11-21T00:35:16;5.00;;;1.67;;
8622;SDS011;4349;47.552;8.904;2023-11-21T00:37:43;4.17;;;1.53;;
8622;SDS011;4349;47.552;8.904;2023-11-21T00:40:13;2.50;;;1.53;;
8622;SDS011;4349;47.552;8.904;2023-11-21T00:42:41;1.57;;;1.43;;
8622;SDS011;4349;47.552;8.904;2023-11-21T00:45:10;3.63;;;1.40;;
8622;SDS011;4349;47.552;8.904;2023-11-21T00:47:37;3.63;;;1.50;;
8622;SDS011;4349;47.552;8.904;2023-11-21T00:50:06;1.80;;;1.40;;
8622;SDS011;4349;47.552;8.904;2023-11-21T00:52:34;2.13;;;1.20;;
8622;SDS011;4349;47.552;8.904;2023-11-21T00:55:02;5.20;;;1.50;;
8622;SDS011;4349;47.552;8.904;2023-11-21T00:57:31;3.00;;;1.47;;
8622;SDS011;4349;47.552;8.904;2023-11-21T00:59:58;2.50;;;1.20;;
8622;SDS011;4349;47.552;8.904;2023-11-21T01:02:26;1.93;;;1.40;;
8622;SDS011;4349;47.552;8.904;2023-11-21T01:04:53;4.50;;;1.70;;
8622;SDS011;4349;47.552;8.904;2023-11-21T01:07:21;3.60;;;1.30;;
8622;SDS011;4349;47.552;8.904;2023-11-21T01:09:49;2.37;;;1.27;;
8622;SDS011;4349;47.552;8.904;2023-11-21T01:12:17;4.20;;;1.50;;
8622;SDS011;4349;47.552;8.904;2023-11-21T01:14:46;4.43;;;1.60;;
8622;SDS011;4349;47.552;8.904;2023-11-21T01:17:14;5.30;;;1.50;;
8622;SDS011;4349;47.552;8.904;2023-11-21T01:19:41;2.50;;;1.50;;
8622;SDS011;4349;47.552;8.904;2023-11-21T01:22:09;4.47;;;1.57;;
8622;SDS011;4349;47.552;8.904;2023-11-21T01:24:38;2.03;;;1.40;;
8622;SDS011;4349;47.552;8.904;2023-11-21T01:27:05;2.23;;;1.30;;
8622;SDS011;4349;47.552;8.904;2023-11-21T01:29:33;4.93;;;1.40;;
8622;SDS011;4349;47.552;8.904;2023-11-21T01:32:02;2.23;;;1.23;;
8622;SDS011;4349;47.552;8.904;2023-11-21T01:34:30;3.67;;;1.23;;
8622;SDS011;4349;47.552;8.904;2023-11-21T01:36:59;2.63;;;1.50;;
8622;SDS011;4349;47.552;8.904;2023-11-21T01:39:27;2.57;;;1.20;;
8622;SDS011;4349;47.552;8.904;2023-11-21T01:41:55;3.80;;;1.40;;
8622;SDS011;4349;47.552;8.904;2023-11-21T01:44:24;2.27;;;1.33;;
8622;SDS011;4349;47.552;8.904;2023-11-21T01:46:52;4.50;;;1.40;;
8622;SDS011;4349;47.552;8.904;2023-11-21T01:49:21;1.70;;;1.30;;
8622;SDS011;4349;47.552;8.904;2023-11-21T01:51:49;7.00;;;1.47;;
8622;SDS011;4349;47.552;8.904;2023-11-21T01:54:18;3.30;;;1.40;;
8622;SDS011;4349;47.552;8.904;2023-11-21T01:56:46;3.20;;;1.30;;
8622;SDS011;4349;47.552;8.904;2023-11-21T01:59:14;1.97;;;1.40;;
8622;SDS011;4349;47.552;8.904;2023-11-21T02:01:45;1.63;;;1.43;;
8622;SDS011;4349;47.552;8.904;2023-11-21T02:04:13;4.90;;;1.60;;
8622;SDS011;4349;47.552;8.904;2023-11-21T02:06:43;3.07;;;1.40;;
8622;SDS011;4349;47.552;8.904;2023-11-21T02:09:10;3.43;;;1.60;;
8622;SDS011;4349;47.552;8.904;2023-11-21T02:11:41;1.63;;;1.33;;
8622;SDS011;4349;47.552;8.904;2023-11-21T02:14:09;1.83;;;1.30;;
8622;SDS011;4349;47.552;8.904;2023-11-21T02:16:36;1.70;;;1.30;;
8622;SDS011;4349;47.552;8.904;2023-11-21T02:19:04;6.20;;;1.50;;
8622;SDS011;4349;47.552;8.904;2023-11-21T02:21:35;2.47;;;1.20;;
8622;SDS011;4349;47.552;8.904;2023-11-21T02:24:08;2.23;;;1.23;;
8622;SDS011;4349;47.552;8.904;2023-11-21T02:26:36;1.30;;;1.13;;
8622;SDS011;4349;47.552;8.904;2023-11-21T02:29:04;4.00;;;1.63;;
8622;SDS011;4349;47.552;8.904;2023-11-21T02:31:32;3.70;;;1.30;;
8622;SDS011;4349;47.552;8.904;2023-11-21T02:34:01;4.93;;;1.40;;
8622;SDS011;4349;47.552;8.904;2023-11-21T02:36:29;3.37;;;1.30;;
8622;SDS011;4349;47.552;8.904;2023-11-21T02:38:57;4.47;;;1.60;;
8622;SDS011;4349;47.552;8.904;2023-11-21T02:41:25;4.03;;;1.63;;
8622;SDS011;4349;47.552;8.904;2023-11-21T02:43:53;2.70;;;1.40;;
8622;SDS011;4349;47.552;8.904;2023-11-21T02:46:20;4.03;;;1.43;;
8622;SDS011;4349;47.552;8.904;2023-11-21T02:48:48;8.77;;;2.23;;
8622;SDS011;4349;47.552;8.904;2023-11-21T02:51:17;3.57;;;2.10;;
8622;SDS011;4349;47.552;8.904;2023-11-21T02:53:44;2.03;;;1.60;;
8622;SDS011;4349;47.552;8.904;2023-11-21T02:56:12;3.60;;;1.93;;
8622;SDS011;4349;47.552;8.904;2023-11-21T02:58:43;2.23;;;1.70;;
8622;SDS011;4349;47.552;8.904;2023-11-21T03:01:11;4.30;;;1.80;;
8622;SDS011;4349;47.552;8.904;2023-11-21T03:03:39;2.80;;;1.60;;
8622;SDS011;4349;47.552;8.904;2023-11-21T03:06:07;1.93;;;1.50;;
8622;SDS011;4349;47.552;8.904;2023-11-21T03:08:34;4.50;;;1.60;;
8622;SDS011;4349;47.552;8.904;2023-11-21T03:11:02;3.87;;;1.90;;
8622;SDS011;4349;47.552;8.904;2023-11-21T03:13:30;2.97;;;1.97;;
8622;SDS011;4349;47.552;8.904;2023-11-21T03:15:59;2.87;;;1.83;;
8622;SDS011;4349;47.552;8.904;2023-11-21T03:18:27;2.60;;;1.60;;
8622;SDS011;4349;47.552;8.904;2023-11-21T03:20:55;1.80;;;1.57;;
8622;SDS011;4349;47.552;8.904;2023-11-21T03:23:23;2.57;;;1.50;;
8622;SDS011;4349;47.552;8.904;2023-11-21T03:25:50;2.73;;;1.40;;
8622;SDS011;4349;47.552;8.904;2023-11-21T03:28:19;3.23;;;1.60;;
8622;SDS011;4349;47.552;8.904;2023-11-21T03:30:47;1.97;;;1.37;;
8622;SDS011;4349;47.552;8.904;2023-11-21T03:33:16;4.00;;;1.60;;
8622;SDS011;4349;47.552;8.904;2023-11-21T03:35:43;2.03;;;1.37;;
8622;SDS011;4349;47.552;8.904;2023-11-21T03:38:11;2.60;;;1.40;;
8622;SDS011;4349;47.552;8.904;2023-11-21T03:40:38;1.73;;;1.63;;
8622;SDS011;4349;47.552;8.904;2023-11-21T03:43:06;4.37;;;1.73;;
8622;SDS011;4349;47.552;8.904;2023-11-21T03:45:34;3.43;;;1.23;;
8622;SDS011;4349;47.552;8.904;2023-11-21T03:48:01;1.93;;;1.20;;
8622;SDS011;4349;47.552;8.904;2023-11-21T03:50:30;1.73;;;1.20;;
8622;SDS011;4349;47.552;8.904;2023-11-21T03:52:58;4.07;;;1.23;;
8622;SDS011;4349;47.552;8.904;2023-11-21T03:55:27;1.40;;;1.20;;
8622;SDS011;4349;47.552;8.904;2023-11-21T03:57:54;1.63;;;1.20;;
8622;SDS011;4349;47.552;8.904;2023-11-21T04:00:21;1.97;;;1.20;;
8622;SDS011;4349;47.552;8.904;2023-11-21T04:02:48;1.37;;;1.00;;
8622;SDS011;4349;47.552;8.904;2023-11-21T04:05:18;1.13;;;1.00;;
8622;SDS011;4349;47.552;8.904;2023-11-21T04:07:47;2.30;;;1.00;;
8622;SDS011;4349;47.552;8.904;2023-11-21T04:10:14;1.47;;;1.00;;
8622;SDS011;4349;47.552;8.904;2023-11-21T04:12:42;1.00;;;1.00;;
8622;SDS011;4349;47.552;8.904;2023-11-21T04:15:10;1.43;;;1.07;;
8622;SDS011;4349;47.552;8.904;2023-11-21T04:17:38;1.77;;;1.00;;
8622;SDS011;4349;47.552;8.904;2023-11-21T04:20:06;1.20;;;1.10;;
8622;SDS011;4349;47.552;8.904;2023-11-21T04:22:38;1.93;;;1.17;;
8622;SDS011;4349;47.552;8.904;2023-11-21T04:25:09;1.83;;;1.67;;
8622;SDS011;4349;47.552;8.904;2023-11-21T04:27:38;1.27;;;0.80;;
8622;SDS011;4349;47.552;8.904;2023-11-21T04:30:06;1.60;;;1.00;;
8622;SDS011;4349;47.552;8.904;2023-11-21T04:32:34;0.97;;;0.97;;
8622;SDS011;4349;47.552;8.904;2023-11-21T04:35:01;1.10;;;1.00;;
8622;SDS011;4349;47.552;8.904;2023-11-21T04:37:30;2.43;;;0.97;;
8622;SDS011;4349;47.552;8.904;2023-11-21T04:39:57;2.57;;;1.00;;
8622;SDS011;4349;47.552;8.904;2023-11-21T04:42:26;1.90;;;1.20;;
8622;SDS011;4349;47.552;8.904;2023-11-21T04:44:55;1.93;;;1.13;;
8622;SDS011;4349;47.552;8.904;2023-11-21T04:47:22;2.03;;;0.90;;
8622;SDS011;4349;47.552;8.904;2023-11-21T04:49:50;1.10;;;0.90;;
8622;SDS011;4349;47.552;8.904;2023-11-21T04:52:18;1.13;;;0.93;;
8622;SDS011;4349;47.552;8.904;2023-11-21T04:54:46;2.30;;;1.00;;
8622;SDS011;4349;47.552;8.904;2023-11-21T04:57:14;2.07;;;1.10;;
8622;SDS011;4349;47.552;8.904;2023-11-21T04:59:45;0.83;;;0.83;;
8622;SDS011;4349;47.552;8.904;2023-11-21T05:02:13;1.80;;;1.00;;
8622;SDS011;4349;47.552;8.904;2023-11-21T05:04:59;1.93;;;0.93;;
8622;SDS011;4349;47.552;8.904;2023-11-21T05:07:27;1.97;;;0.80;;
8622;SDS011;4349;47.552;8.904;2023-11-21T05:09:57;2.40;;;1.57;;
8622;SDS011;4349;47.552;8.904;2023-11-21T05:12:26;1.33;;;1.07;;
8622;SDS011;4349;47.552;8.904;2023-11-21T05:14:55;2.30;;;1.70;;
8622;SDS011;4349;47.552;8.904;2023-11-21T05:17:22;0.90;;;0.90;;
8622;SDS011;4349;47.552;8.904;2023-11-21T05:19:50;2.77;;;1.47;;
8622;SDS011;4349;47.552;8.904;2023-11-21T05:22:17;1.13;;;1.00;;
8622;SDS011;4349;47.552;8.904;2023-11-21T05:24:46;1.33;;;0.87;;
8622;SDS011;4349;47.552;8.904;2023-11-21T05:27:13;1.07;;;1.00;;
8622;SDS011;4349;47.552;8.904;2023-11-21T05:29:42;1.10;;;0.90;;
8622;SDS011;4349;47.552;8.904;2023-11-21T05:32:11;3.63;;;1.10;;
8622;SDS011;4349;47.552;8.904;2023-11-21T05:34:38;2.00;;;1.07;;
8622;SDS011;4349;47.552;8.904;2023-11-21T05:37:06;0.93;;;0.93;;
8622;SDS011;4349;47.552;8.904;2023-11-21T05:39:34;1.00;;;0.93;;
8622;SDS011;4349;47.552;8.904;2023-11-21T05:42:02;1.00;;;0.90;;
8622;SDS011;4349;47.552;8.904;2023-11-21T05:44:30;1.73;;;1.10;;
8622;SDS011;4349;47.552;8.904;2023-11-21T05:46:57;1.70;;;1.00;;
8622;SDS011;4349;47.552;8.904;2023-11-21T05:49:27;0.90;;;0.90;;
8622;SDS011;4349;47.552;8.904;2023-11-21T05:51:56;1.27;;;0.90;;
8622;SDS011;4349;47.552;8.904;2023-11-21T05:54:26;1.67;;;0.90;;
8622;SDS011;4349;47.552;8.904;2023-11-21T05:56:54;1.83;;;0.93;;
8622;SDS011;4349;47.552;8.904;2023-11-21T05:59:22;2.00;;;1.00;;
8622;SDS011;4349;47.552;8.904;2023-11-21T06:01:49;0.80;;;0.77;;
8622;SDS011;4349;47.552;8.904;2023-11-21T06:04:17;1.83;;;0.87;;
8622;SDS011;4349;47.552;8.904;2023-11-21T06:06:46;2.57;;;1.20;;
8622;SDS011;4349;47.552;8.904;2023-11-21T06:09:13;2.23;;;1.17;;
8622;SDS011;4349;47.552;8.904;2023-11-21T06:11:41;1.33;;;1.00;;
8622;SDS011;4349;47.552;8.904;2023-11-21T06:14:08;1.10;;;1.00;;
8622;SDS011;4349;47.552;8.904;2023-11-21T06:16:37;1.40;;;1.20;;
8622;SDS011;4349;47.552;8.904;2023-11-21T06:19:06;1.20;;;1.10;;
8622;SDS011;4349;47.552;8.904;2023-11-21T06:21:34;0.80;;;0.80;;
8622;SDS011;4349;47.552;8.904;2023-11-21T06:24:03;3.03;;;1.30;;
8622;SDS011;4349;47.552;8.904;2023-11-21T06:26:30;1.37;;;1.10;;
8622;SDS011;4349;47.552;8.904;2023-11-21T06:28:58;1.47;;;1.07;;
8622;SDS011;4349;47.552;8.904;2023-11-21T06:31:26;1.83;;;1.00;;
8622;SDS011;4349;47.552;8.904;2023-11-21T06:33:53;1.50;;;1.07;;
8622;SDS011;4349;47.552;8.904;2023-11-21T06:36:21;1.33;;;1.23;;
8622;SDS011;4349;47.552;8.904;2023-11-21T06:38:48;1.63;;;1.20;;
8622;SDS011;4349;47.552;8.904;2023-11-21T06:41:17;0.90;;;0.90;;
8622;SDS011;4349;47.552;8.904;2023-11-21T06:43:45;0.90;;;0.90;;
8622;SDS011;4349;47.552;8.904;2023-11-21T06:46:13;1.10;;;1.00;;
8622;SDS011;4349;47.552;8.904;2023-11-21T06:48:42;1.27;;;1.17;;
8622;SDS011;4349;47.552;8.904;2023-11-21T06:51:10;1.00;;;1.00;;
8622;SDS011;4349;47.552;8.904;2023-11-21T06:53:37;1.10;;;1.10;;
8622;SDS011;4349;47.552;8.904;2023-11-21T06:56:05;1.10;;;1.10;;
8622;SDS011;4349;47.552;8.904;2023-11-21T06:58:43;1.37;;;0.93;;
8622;SDS011;4349;47.552;8.904;2023-11-21T07:01:11;1.43;;;1.07;;
8622;SDS011;4349;47.552;8.904;2023-11-21T07:03:39;1.10;;;1.00;;
8622;SDS011;4349;47.552;8.904;2023-11-21T07:06:08;1.23;;;1.10;;
8622;SDS011;4349;47.552;8.904;2023-11-21T07:08:35;1.53;;;1.20;;
8622;SDS011;4349;47.552;8.904;2023-11-21T07:11:03;1.33;;;0.90;;
8622;SDS011;4349;47.552;8.904;2023-11-21T07:13:31;1.13;;;1.10;;
8622;SDS011;4349;47.552;8.904;2023-11-21T07:16:00;1.00;;;0.80;;
8622;SDS011;4349;47.552;8.904;2023-11-21T07:18:28;1.60;;;1.00;;
8622;SDS011;4349;47.552;8.904;2023-11-21T07:20:56;1.70;;;1.60;;
8622;SDS011;4349;47.552;8.904;2023-11-21T07:23:25;1.23;;;1.17;;
8622;SDS011;4349;47.552;8.904;2023-11-21T07:25:52;1.07;;;1.07;;
8622;SDS011;4349;47.552;8.904;2023-11-21T07:28:20;1.20;;;1.10;;
8622;SDS011;4349;47.552;8.904;2023-11-21T07:30:47;1.27;;;1.10;;
8622;SDS011;4349;47.552;8.904;2023-11-21T07:33:16;1.50;;;1.37;;
8622;SDS011;4349;47.552;8.904;2023-11-21T07:35:44;1.63;;;1.10;;
8622;SDS011;4349;47.552;8.904;2023-11-21T07:38:11;1.30;;;1.27;;
8622;SDS011;4349;47.552;8.904;2023-11-21T07:40:39;2.83;;;1.27;;
8622;SDS011;4349;47.552;8.904;2023-11-21T07:43:06;1.33;;;1.20;;
8622;SDS011;4349;47.552;8.904;2023-11-21T07:45:35;1.27;;;1.00;;
8622;SDS011;4349;47.552;8.904;2023-11-21T07:48:02;1.10;;;1.00;;
8622;SDS011;4349;47.552;8.904;2023-11-21T07:50:32;1.37;;;1.17;;
8622;SDS011;4349;47.552;8.904;2023-11-21T07:53:01;1.47;;;1.37;;
8622;SDS011;4349;47.552;8.904;2023-11-21T07:55:31;1.80;;;1.67;;
8622;SDS011;4349;47.552;8.904;2023-11-21T07:57:59;1.97;;;1.20;;
8622;SDS011;4349;47.552;8.904;2023-11-21T08:00:27;1.30;;;1.20;;
8622;SDS011;4349;47.552;8.904;2023-11-21T08:02:56;4.10;;;1.20;;
8622;SDS011;4349;47.552;8.904;2023-11-21T08:05:24;2.33;;;1.13;;
8622;SDS011;4349;47.552;8.904;2023-11-21T08:08:04;4.10;;;1.70;;
8622;SDS011;4349;47.552;8.904;2023-11-21T08:10:31;1.20;;;1.20;;
8622;SDS011;4349;47.552;8.904;2023-11-21T08:12:59;1.37;;;1.20;;
8622;SDS011;4349;47.552;8.904;2023-11-21T08:15:27;1.60;;;1.10;;
8622;SDS011;4349;47.552;8.904;2023-11-21T08:17:55;1.10;;;1.10;;
8622;SDS011;4349;47.552;8.904;2023-11-21T08:20:22;1.23;;;1.10;;
8622;SDS011;4349;47.552;8.904;2023-11-21T08:22:51;1.63;;;1.00;;
8622;SDS011;4349;47.552;8.904;2023-11-21T08:25:20;0.90;;;0.90;;
8622;SDS011;4349;47.552;8.904;2023-11-21T08:27:48;2.03;;;1.40;;
8622;SDS011;4349;47.552;8.904;2023-11-21T08:30:15;1.23;;;1.20;;
8622;SDS011;4349;47.552;8.904;2023-11-21T08:32:45;1.20;;;1.10;;
8622;SDS011;4349;47.552;8.904;2023-11-21T08:35:12;1.00;;;1.00;;
8622;SDS011;4349;47.552;8.904;2023-11-21T08:37:40;1.30;;;1.30;;
8622;SDS011;4349;47.552;8.904;2023-11-21T08:40:08;2.77;;;1.37;;
8622;SDS011;4349;47.552;8.904;2023-11-21T08:42:40;1.90;;;1.47;;
8622;SDS011;4349;47.552;8.904;2023-11-21T08:45:07;2.87;;;1.10;;
8622;SDS011;4349;47.552;8.904;2023-11-21T08:47:35;1.17;;;1.17;;
8622;SDS011;4349;47.552;8.904;2023-11-21T08:50:03;1.60;;;1.50;;
8622;SDS011;4349;47.552;8.904;2023-11-21T08:52:32;2.10;;;1.30;;
8622;SDS011;4349;47.552;8.904;2023-11-21T08:55:00;1.70;;;1.10;;
8622;SDS011;4349;47.552;8.904;2023-11-21T08:57:33;2.80;;;1.27;;
8622;SDS011;4349;47.552;8.904;2023-11-21T09:00:03;1.30;;;1.23;;
8622;SDS011;4349;47.552;8.904;2023-11-21T09:02:34;1.37;;;1.27;;
8622;SDS011;4349;47.552;8.904;2023-11-21T09:05:01;2.00;;;1.27;;
8622;SDS011;4349;47.552;8.904;2023-11-21T09:07:30;1.20;;;1.20;;
8622;SDS011;4349;47.552;8.904;2023-11-21T09:09:57;1.60;;;1.30;;
8622;SDS011;4349;47.552;8.904;2023-11-21T09:12:25;1.47;;;1.27;;
8622;SDS011;4349;47.552;8.904;2023-11-21T09:14:52;1.37;;;1.37;;
8622;SDS011;4349;47.552;8.904;2023-11-21T09:17:21;1.60;;;1.30;;
8622;SDS011;4349;47.552;8.904;2023-11-21T09:19:49;2.23;;;1.37;;
8622;SDS011;4349;47.552;8.904;2023-11-21T09:22:17;1.37;;;1.27;;
8622;SDS011;4349;47.552;8.904;2023-11-21T09:24:45;1.33;;;1.23;;
8622;SDS011;4349;47.552;8.904;2023-11-21T09:27:12;1.27;;;1.10;;
8622;SDS011;4349;47.552;8.904;2023-11-21T09:29:41;1.07;;;1.07;;
8622;SDS011;4349;47.552;8.904;2023-11-21T09:32:09;1.67;;;1.27;;
8622;SDS011;4349;47.552;8.904;2023-11-21T09:34:38;1.67;;;1.20;;
8622;SDS011;4349;47.552;8.904;2023-11-21T09:37:06;1.43;;;1.30;;
8622;SDS011;4349;47.552;8.904;2023-11-21T09:39:34;1.23;;;1.17;;
8622;SDS011;4349;47.552;8.904;2023-11-21T09:42:04;1.10;;;1.10;;
8622;SDS011;4349;47.552;8.904;2023-11-21T09:44:34;1.40;;;1.40;;
8622;SDS011;4349;47.552;8.904;2023-11-21T09:47:03;1.53;;;1.20;;
8622;SDS011;4349;47.552;8.904;2023-11-21T09:49:30;1.37;;;1.27;;
8622;SDS011;4349;47.552;8.904;2023-11-21T09:52:02;1.37;;;1.27;;
8622;SDS011;4349;47.552;8.904;2023-11-21T09:54:31;1.30;;;1.30;;
8622;SDS011;4349;47.552;8.904;2023-11-21T09:56:59;1.47;;;1.37;;
8622;SDS011;4349;47.552;8.904;2023-11-21T09:59:28;2.03;;;1.37;;
8622;SDS011;4349;47.552;8.904;2023-11-21T10:01:57;1.40;;;1.30;;
8622;SDS011;4349;47.552;8.904;2023-11-21T10:04:27;2.10;;;1.37;;
8622;SDS011;4349;47.552;8.904;2023-11-21T10:06:55;3.17;;;1.13;;
8622;SDS011;4349;47.552;8.904;2023-11-21T10:09:24;1.30;;;1.30;;
8622;SDS011;4349;47.552;8.904;2023-11-21T10:11:53;2.90;;;1.30;;
8622;SDS011;4349;47.552;8.904;2023-11-21T10:14:21;1.30;;;1.30;;
8622;SDS011;4349;47.552;8.904;2023-11-21T10:16:51;1.53;;;1.10;;
8622;SDS011;4349;47.552;8.904;2023-11-21T10:19:19;1.17;;;1.17;;
8622;SDS011;4349;47.552;8.904;2023-11-21T10:21:50;1.17;;;1.17;;
8622;SDS011;4349;47.552;8.904;2023-11-21T10:24:18;1.53;;;1.43;;
8622;SDS011;4349;47.552;8.904;2023-11-21T10:26:46;1.13;;;1.13;;
8622;SDS011;4349;47.552;8.904;2023-11-21T10:29:19;2.73;;;1.30;;
8622;SDS011;4349;47.552;8.904;2023-11-21T10:31:48;1.33;;;1.33;;
8622;SDS011;4349;47.552;8.904;2023-11-21T10:34:17;1.10;;;1.10;;
8622;SDS011;4349;47.552;8.904;2023-11-21T10:36:45;1.23;;;1.23;;
8622;SDS011;4349;47.552;8.904;2023-11-21T10:39:16;1.20;;;1.20;;
8622;SDS011;4349;47.552;8.904;2023-11-21T10:41:46;1.63;;;1.63;;
8622;SDS011;4349;47.552;8.904;2023-11-21T10:44:15;1.30;;;1.30;;
8622;SDS011;4349;47.552;8.904;2023-11-21T10:46:47;1.40;;;1.40;;
8622;SDS011;4349;47.552;8.904;2023-11-21T10:49:17;1.30;;;1.30;;
8622;SDS011;4349;47.552;8.904;2023-11-21T10:51:44;1.03;;;1.03;;
8622;SDS011;4349;47.552;8.904;2023-11-21T10:54:16;1.10;;;1.10;;
8622;SDS011;4349;47.552;8.904;2023-11-21T10:56:44;1.60;;;1.50;;
8622;SDS011;4349;47.552;8.904;2023-11-21T10:59:14;1.03;;;1.00;;
8622;SDS011;4349;47.552;8.904;2023-11-21T11:01:42;1.10;;;1.10;;
8622;SDS011;4349;47.552;8.904;2023-11-21T11:04:11;1.20;;;1.20;;
8622;SDS011;4349;47.552;8.904;2023-11-21T11:06:42;1.10;;;1.10;;
8622;SDS011;4349;47.552;8.904;2023-11-21T11:09:10;1.00;;;1.00;;
8622;SDS011;4349;47.552;8.904;2023-11-21T11:11:39;0.90;;;0.90;;
8622;SDS011;4349;47.552;8.904;2023-11-21T11:14:08;1.27;;;1.20;;
8622;SDS011;4349;47.552;8.904;2023-11-21T11:16:40;1.10;;;1.10;;
8622;SDS011;4349;47.552;8.904;2023-11-21T11:19:09;1.10;;;0.90;;
8622;SDS011;4349;47.552;8.904;2023-11-21T11:21:43;0.90;;;0.90;;
8622;SDS011;4349;47.552;8.904;2023-11-21T11:24:29;1.10;;;1.10;;
8622;SDS011;4349;47.552;8.904;2023-11-21T11:27:01;1.03;;;1.03;;
8622;SDS011;4349;47.552;8.904;2023-11-21T11:29:35;1.13;;;1.13;;
8622;SDS011;4349;47.552;8.904;2023-11-21T11:32:10;1.00;;;1.00;;
8622;SDS011;4349;47.552;8.904;2023-11-21T11:34:41;1.00;;;1.00;;
8622;SDS011;4349;47.552;8.904;2023-11-21T11:37:11;1.10;;;1.10;;
8622;SDS011;4349;47.552;8.904;2023-11-21T11:39:40;0.93;;;0.93;;
8622;SDS011;4349;47.552;8.904;2023-11-21T11:42:10;1.17;;;1.10;;
8622;SDS011;4349;47.552;8.904;2023-11-21T11:44:48;1.07;;;1.07;;
8622;SDS011;4349;47.552;8.904;2023-11-21T11:47:23;1.17;;;1.13;;
8622;SDS011;4349;47.552;8.904;2023-11-21T11:49:58;0.93;;;0.93;;
8622;SDS011;4349;47.552;8.904;2023-11-21T11:52:33;1.50;;;1.40;;
8622;SDS011;4349;47.552;8.904;2023-11-21T11:55:00;1.00;;;1.00;;
8622;SDS011;4349;47.552;8.904;2023-11-21T11:57:29;1.40;;;1.03;;
8622;SDS011;4349;47.552;8.904;2023-11-21T12:00:10;1.10;;;1.10;;
8622;SDS011;4349;47.552;8.904;2023-11-21T12:02:39;1.00;;;1.00;;
8622;SDS011;4349;47.552;8.904;2023-11-21T12:05:08;1.07;;;0.90;;
8622;SDS011;4349;47.552;8.904;2023-11-21T12:07:41;2.40;;;1.30;;
8622;SDS011;4349;47.552;8.904;2023-11-21T12:10:11;1.00;;;1.00;;
8622;SDS011;4349;47.552;8.904;2023-11-21T12:12:41;1.30;;;1.20;;
8622;SDS011;4349;47.552;8.904;2023-11-21T12:15:08;1.10;;;1.10;;
8622;SDS011;4349;47.552;8.904;2023-11-21T12:17:37;1.13;;;1.07;;
8622;SDS011;4349;47.552;8.904;2023-11-21T12:20:06;1.00;;;1.00;;
8622;SDS011;4349;47.552;8.904;2023-11-21T12:22:44;3.50;;;1.20;;
8622;SDS011;4349;47.552;8.904;2023-11-21T12:25:14;2.50;;;1.13;;
8622;SDS011;4349;47.552;8.904;2023-11-21T12:27:45;1.80;;;1.00;;
8622;SDS011;4349;47.552;8.904;2023-11-21T12:30:13;1.10;;;1.10;;
8622;SDS011;4349;47.552;8.904;2023-11-21T12:32:42;1.10;;;1.10;;
8622;SDS011;4349;47.552;8.904;2023-11-21T12:35:11;1.50;;;1.00;;
8622;SDS011;4349;47.552;8.904;2023-11-21T12:37:40;1.63;;;1.23;;
8622;SDS011;4349;47.552;8.904;2023-11-21T12:40:09;1.30;;;1.20;;
8622;SDS011;4349;47.552;8.904;2023-11-21T12:42:39;1.10;;;1.10;;
8622;SDS011;4349;47.552;8.904;2023-11-21T12:45:07;1.40;;;1.30;;
8622;SDS011;4349;47.552;8.904;2023-11-21T12:47:35;1.30;;;1.30;;
8622;SDS011;4349;47.552;8.904;2023-11-21T12:50:03;1.20;;;1.20;;
8622;SDS011;4349;47.552;8.904;2023-11-21T12:52:33;1.53;;;1.43;;
8622;SDS011;4349;47.552;8.904;2023-11-21T12:55:01;1.50;;;1.40;;
8622;SDS011;4349;47.552;8.904;2023-11-21T12:57:28;1.40;;;1.40;;
8622;SDS011;4349;47.552;8.904;2023-11-21T12:59:56;1.60;;;1.50;;
8622;SDS011;4349;47.552;8.904;2023-11-21T13:02:25;1.80;;;1.80;;
8622;SDS011;4349;47.552;8.904;2023-11-21T13:04:53;2.00;;;1.90;;
8622;SDS011;4349;47.552;8.904;2023-11-21T13:07:23;1.50;;;1.50;;
8622;SDS011;4349;47.552;8.904;2023-11-21T13:09:53;1.97;;;1.30;;
8622;SDS011;4349;47.552;8.904;2023-11-21T13:12:23;1.97;;;1.87;;
8622;SDS011;4349;47.552;8.904;2023-11-21T13:14:51;1.90;;;1.50;;
8622;SDS011;4349;47.552;8.904;2023-11-21T13:17:18;1.83;;;1.73;;
8622;SDS011;4349;47.552;8.904;2023-11-21T13:19:49;2.03;;;1.63;;
8622;SDS011;4349;47.552;8.904;2023-11-21T13:22:16;2.03;;;1.80;;
8622;SDS011;4349;47.552;8.904;2023-11-21T13:24:44;3.30;;;2.37;;
8622;SDS011;4349;47.552;8.904;2023-11-21T13:27:13;2.33;;;2.13;;
8622;SDS011;4349;47.552;8.904;2023-11-21T13:29:41;2.00;;;1.90;;
8622;SDS011;4349;47.552;8.904;2023-11-21T13:32:09;1.80;;;1.70;;
8622;SDS011;4349;47.552;8.904;2023-11-21T13:34:38;1.93;;;1.93;;
8622;SDS011;4349;47.552;8.904;2023-11-21T13:37:11;2.10;;;2.00;;
8622;SDS011;4349;47.552;8.904;2023-11-21T13:39:38;1.80;;;1.80;;
8622;SDS011;4349;47.552;8.904;2023-11-21T13:42:10;1.83;;;1.80;;
8622;SDS011;4349;47.552;8.904;2023-11-21T13:44:39;1.93;;;1.83;;
8622;SDS011;4349;47.552;8.904;2023-11-21T13:47:11;5.27;;;1.97;;
8622;SDS011;4349;47.552;8.904;2023-11-21T13:49:38;1.80;;;1.70;;
8622;SDS011;4349;47.552;8.904;2023-11-21T13:52:07;1.60;;;1.60;;
8622;SDS011;4349;47.552;8.904;2023-11-21T13:54:35;1.50;;;1.50;;
8622;SDS011;4349;47.552;8.904;2023-11-21T13:57:02;1.57;;;1.47;;
8622;SDS011;4349;47.552;8.904;2023-11-21T13:59:31;1.40;;;1.30;;
8622;SDS011;4349;47.552;8.904;2023-11-21T14:02:01;1.57;;;1.50;;
8622;SDS011;4349;47.552;8.904;2023-11-21T14:04:43;1.30;;;1.30;;
8622;SDS011;4349;47.552;8.904;2023-11-21T14:07:23;1.40;;;1.40;;
8622;SDS011;4349;47.552;8.904;2023-11-21T14:09:59;1.30;;;1.30;;
8622;SDS011;4349;47.552;8.904;2023-11-21T14:12:26;1.30;;;1.23;;
8622;SDS011;4349;47.552;8.904;2023-11-21T14:14:54;1.60;;;1.50;;
8622;SDS011;4349;47.552;8.904;2023-11-21T14:17:23;1.30;;;1.30;;
8622;SDS011;4349;47.552;8.904;2023-11-21T14:19:51;1.90;;;1.30;;
8622;SDS011;4349;47.552;8.904;2023-11-21T14:22:21;1.50;;;1.40;;
8622;SDS011;4349;47.552;8.904;2023-11-21T14:24:52;1.10;;;1.10;;
8622;SDS011;4349;47.552;8.904;2023-11-21T14:27:21;1.20;;;1.20;;
8622;SDS011;4349;47.552;8.904;2023-11-21T14:29:49;1.33;;;1.33;;
8622;SDS011;4349;47.552;8.904;2023-11-21T14:32:16;1.10;;;1.10;;
8622;SDS011;4349;47.552;8.904;2023-11-21T14:34:45;1.60;;;1.27;;
8622;SDS011;4349;47.552;8.904;2023-11-21T14:37:14;1.83;;;1.40;;
8622;SDS011;4349;47.552;8.904;2023-11-21T14:39:41;1.40;;;1.40;;
8622;SDS011;4349;47.552;8.904;2023-11-21T14:42:12;1.40;;;1.40;;
8622;SDS011;4349;47.552;8.904;2023-11-21T14:44:41;1.30;;;1.30;;
8622;SDS011;4349;47.552;8.904;2023-11-21T14:47:09;1.63;;;1.53;;
8622;SDS011;4349;47.552;8.904;2023-11-21T14:49:41;1.67;;;1.60;;
8622;SDS011;4349;47.552;8.904;2023-11-21T14:52:20;1.77;;;1.67;;
8622;SDS011;4349;47.552;8.904;2023-11-21T14:55:01;1.70;;;1.70;;
8622;SDS011;4349;47.552;8.904;2023-11-21T14:57:42;2.30;;;2.20;;
8622;SDS011;4349;47.552;8.904;2023-11-21T15:00:16;3.70;;;3.50;;
8622;SDS011;4349;47.552;8.904;2023-11-21T15:03:03;2.37;;;2.23;;
8622;SDS011;4349;47.552;8.904;2023-11-21T15:05:32;2.10;;;1.87;;
8622;SDS011;4349;47.552;8.904;2023-11-21T15:08:02;1.80;;;1.70;;
8622;SDS011;4349;47.552;8.904;2023-11-21T15:10:45;1.40;;;1.40;;
8622;SDS011;4349;47.552;8.904;2023-11-21T15:13:13;1.63;;;1.57;;
8622;SDS011;4349;47.552;8.904;2023-11-21T15:15:41;1.50;;;1.50;;
8622;SDS011;4349;47.552;8.904;2023-11-21T15:18:09;1.60;;;1.50;;
8622;SDS011;4349;47.552;8.904;2023-11-21T15:20:39;1.50;;;1.30;;
8622;SDS011;4349;47.552;8.904;2023-11-21T15:23:08;1.53;;;1.50;;
8622;SDS011;4349;47.552;8.904;2023-11-21T15:25:36;1.50;;;1.40;;